sensor_id;sensor_type;location;lat;lon;timestamp;P1;durP1;ratioP1;P2;durP2;ratioP2
18532;SDS011;9396;51.510;11.934;2022-12-10T00:00:04;28.23;;;14.37;;
18532;SDS011;9396;51.510;11.934;2022-12-10T00:02:34;26.37;;;13.13;;
18532;SDS011;9396;51.510;11.934;2022-12-10T00:05:02;26.27;;;13.53;;
18532;SDS011;9396;51.510;11.934;2022-12-10T00:07:29;24.90;;;12.90;;
18532;SDS011;9396;51.510;11.934;2022-12-10T00:09:55;25.00;;;13.33;;
18532;SDS011;9396;51.510;11.934;2022-12-10T00:12:22;25.30;;;13.00;;
18532;SDS011;9396;51.510;11.934;2022-12-10T00:14:48;30.53;;;14.03;;
18532;SDS011;9396;51.510;11.934;2022-12-10T00:17:15;23.10;;;12.40;;
18532;SDS011;9396;51.510;11.934;2022-12-10T00:19:42;22.77;;;12.50;;
18532;SDS011;9396;51.510;11.934;2022-12-10T00:22:10;22.40;;;12.47;;
18532;SDS011;9396;51.510;11.934;2022-12-10T00:24:36;22.07;;;11.97;;
18532;SDS011;9396;51.510;11.934;2022-12-10T00:27:03;27.23;;;14.10;;
18532;SDS011;9396;51.510;11.934;2022-12-10T00:29:30;25.87;;;14.20;;
18532;SDS011;9396;51.510;11.934;2022-12-10T00:31:56;21.87;;;12.57;;
18532;SDS011;9396;51.510;11.934;2022-12-10T00:34:23;23.20;;;13.23;;
18532;SDS011;9396;51.510;11.934;2022-12-10T00:36:50;25.30;;;13.47;;
18532;SDS011;9396;51.510;11.934;2022-12-10T00:39:18;26.53;;;13.70;;
18532;SDS011;9396;51.510;11.934;2022-12-10T00:41:46;23.57;;;12.87;;
18532;SDS011;9396;51.510;11.934;2022-12-10T00:44:14;25.43;;;13.97;;
18532;SDS011;9396;51.510;11.934;2022-12-10T00:46:41;23.80;;;14.10;;
18532;SDS011;9396;51.510;11.934;2022-12-10T00:49:08;22.33;;;12.67;;
18532;SDS011;9396;51.510;11.934;2022-12-10T00:51:35;24.00;;;12.33;;
18532;SDS011;9396;51.510;11.934;2022-12-10T00:54:02;23.63;;;12.47;;
18532;SDS011;9396;51.510;11.934;2022-12-10T00:56:31;23.63;;;11.57;;
18532;SDS011;9396;51.510;11.934;2022-12-10T00:58:59;20.23;;;11.07;;
18532;SDS011;9396;51.510;11.934;2022-12-10T01:01:27;21.67;;;11.60;;
18532;SDS011;9396;51.510;11.934;2022-12-10T01:03:57;21.53;;;11.73;;
18532;SDS011;9396;51.510;11.934;2022-12-10T01:06:26;20.67;;;11.97;;
18532;SDS011;9396;51.510;11.934;2022-12-10T01:08:55;21.87;;;12.20;;
18532;SDS011;9396;51.510;11.934;2022-12-10T01:11:24;19.77;;;11.00;;
18532;SDS011;9396;51.510;11.934;2022-12-10T01:13:58;23.47;;;12.60;;
18532;SDS011;9396;51.510;11.934;2022-12-10T01:16:25;20.33;;;11.00;;
18532;SDS011;9396;51.510;11.934;2022-12-10T01:18:52;21.53;;;11.87;;
18532;SDS011;9396;51.510;11.934;2022-12-10T01:21:20;21.17;;;12.07;;
18532;SDS011;9396;51.510;11.934;2022-12-10T01:23:48;20.43;;;11.23;;
18532;SDS011;9396;51.510;11.934;2022-12-10T01:26:17;20.90;;;12.40;;
18532;SDS011;9396;51.510;11.934;2022-12-10T01:28:45;22.43;;;12.63;;
18532;SDS011;9396;51.510;11.934;2022-12-10T01:31:14;22.63;;;13.03;;
18532;SDS011;9396;51.510;11.934;2022-12-10T01:33:42;23.43;;;12.93;;
18532;SDS011;9396;51.510;11.934;2022-12-10T01:36:09;23.13;;;13.23;;
18532;SDS011;9396;51.510;11.934;2022-12-10T01:38:37;29.93;;;16.13;;
18532;SDS011;9396;51.510;11.934;2022-12-10T01:41:04;26.37;;;14.90;;
18532;SDS011;9396;51.510;11.934;2022-12-10T01:43:47;21.87;;;14.00;;
18532;SDS011;9396;51.510;11.934;2022-12-10T01:46:18;25.43;;;13.43;;
18532;SDS011;9396;51.510;11.934;2022-12-10T01:48:46;23.80;;;13.60;;
18532;SDS011;9396;51.510;11.934;2022-12-10T01:51:13;24.80;;;13.07;;
18532;SDS011;9396;51.510;11.934;2022-12-10T01:53:41;26.57;;;13.67;;
18532;SDS011;9396;51.510;11.934;2022-12-10T01:56:09;24.87;;;13.10;;
18532;SDS011;9396;51.510;11.934;2022-12-10T01:58:36;26.43;;;14.20;;
18532;SDS011;9396;51.510;11.934;2022-12-10T02:01:05;29.13;;;15.53;;
18532;SDS011;9396;51.510;11.934;2022-12-10T02:03:38;26.90;;;14.73;;
18532;SDS011;9396;51.510;11.934;2022-12-10T02:06:20;26.67;;;14.20;;
18532;SDS011;9396;51.510;11.934;2022-12-10T02:08:57;27.67;;;14.13;;
18532;SDS011;9396;51.510;11.934;2022-12-10T02:11:32;26.87;;;14.10;;
18532;SDS011;9396;51.510;11.934;2022-12-10T02:14:08;28.77;;;14.90;;
18532;SDS011;9396;51.510;11.934;2022-12-10T02:16:43;28.33;;;14.20;;
18532;SDS011;9396;51.510;11.934;2022-12-10T02:19:15;26.40;;;14.00;;
18532;SDS011;9396;51.510;11.934;2022-12-10T02:21:48;27.80;;;14.97;;
18532;SDS011;9396;51.510;11.934;2022-12-10T02:24:19;29.80;;;15.10;;
18532;SDS011;9396;51.510;11.934;2022-12-10T02:26:56;25.93;;;14.27;;
18532;SDS011;9396;51.510;11.934;2022-12-10T02:29:31;28.23;;;15.17;;
18532;SDS011;9396;51.510;11.934;2022-12-10T02:32:02;28.53;;;15.10;;
18532;SDS011;9396;51.510;11.934;2022-12-10T02:34:32;25.77;;;13.87;;
18532;SDS011;9396;51.510;11.934;2022-12-10T02:37:03;24.77;;;14.13;;
18532;SDS011;9396;51.510;11.934;2022-12-10T02:39:34;30.80;;;16.17;;
18532;SDS011;9396;51.510;11.934;2022-12-10T02:42:05;26.37;;;15.30;;
18532;SDS011;9396;51.510;11.934;2022-12-10T02:44:35;33.27;;;16.50;;
18532;SDS011;9396;51.510;11.934;2022-12-10T02:47:04;29.37;;;14.87;;
18532;SDS011;9396;51.510;11.934;2022-12-10T02:49:33;27.73;;;16.03;;
18532;SDS011;9396;51.510;11.934;2022-12-10T02:52:05;34.87;;;18.30;;
18532;SDS011;9396;51.510;11.934;2022-12-10T02:54:38;29.20;;;15.80;;
18532;SDS011;9396;51.510;11.934;2022-12-10T02:57:20;31.37;;;15.83;;
18532;SDS011;9396;51.510;11.934;2022-12-10T03:00:04;31.30;;;16.70;;
18532;SDS011;9396;51.510;11.934;2022-12-10T03:02:36;31.77;;;15.87;;
18532;SDS011;9396;51.510;11.934;2022-12-10T03:05:14;32.47;;;16.37;;
18532;SDS011;9396;51.510;11.934;2022-12-10T03:07:46;30.50;;;16.63;;
18532;SDS011;9396;51.510;11.934;2022-12-10T03:10:18;33.70;;;16.83;;
18532;SDS011;9396;51.510;11.934;2022-12-10T03:12:52;32.70;;;16.30;;
18532;SDS011;9396;51.510;11.934;2022-12-10T03:15:26;33.57;;;16.13;;
18532;SDS011;9396;51.510;11.934;2022-12-10T03:17:56;30.13;;;16.33;;
18532;SDS011;9396;51.510;11.934;2022-12-10T03:20:25;32.33;;;17.67;;
18532;SDS011;9396;51.510;11.934;2022-12-10T03:22:52;36.13;;;18.03;;
18532;SDS011;9396;51.510;11.934;2022-12-10T03:25:21;31.50;;;15.67;;
18532;SDS011;9396;51.510;11.934;2022-12-10T03:27:51;30.90;;;16.90;;
18532;SDS011;9396;51.510;11.934;2022-12-10T03:30:20;32.93;;;16.57;;
18532;SDS011;9396;51.510;11.934;2022-12-10T03:32:48;31.60;;;17.00;;
18532;SDS011;9396;51.510;11.934;2022-12-10T03:35:16;31.20;;;15.67;;
18532;SDS011;9396;51.510;11.934;2022-12-10T03:37:45;26.87;;;15.53;;
18532;SDS011;9396;51.510;11.934;2022-12-10T03:40:12;26.57;;;14.87;;
18532;SDS011;9396;51.510;11.934;2022-12-10T03:42:40;27.00;;;14.53;;
18532;SDS011;9396;51.510;11.934;2022-12-10T03:45:07;25.60;;;14.23;;
18532;SDS011;9396;51.510;11.934;2022-12-10T03:47:34;28.03;;;15.03;;
18532;SDS011;9396;51.510;11.934;2022-12-10T03:50:02;27.13;;;14.30;;
18532;SDS011;9396;51.510;11.934;2022-12-10T03:52:29;24.53;;;13.77;;
18532;SDS011;9396;51.510;11.934;2022-12-10T03:54:56;21.67;;;12.47;;
18532;SDS011;9396;51.510;11.934;2022-12-10T03:57:23;22.90;;;12.60;;
18532;SDS011;9396;51.510;11.934;2022-12-10T03:59:49;26.17;;;13.87;;
18532;SDS011;9396;51.510;11.934;2022-12-10T04:02:16;22.63;;;11.87;;
18532;SDS011;9396;51.510;11.934;2022-12-10T04:04:43;25.93;;;13.07;;
18532;SDS011;9396;51.510;11.934;2022-12-10T04:07:11;23.57;;;13.37;;
18532;SDS011;9396;51.510;11.934;2022-12-10T04:09:38;26.87;;;14.67;;
18532;SDS011;9396;51.510;11.934;2022-12-10T04:12:04;27.67;;;13.30;;
18532;SDS011;9396;51.510;11.934;2022-12-10T04:14:31;27.60;;;13.63;;
18532;SDS011;9396;51.510;11.934;2022-12-10T04:17:15;25.83;;;13.13;;
18532;SDS011;9396;51.510;11.934;2022-12-10T04:19:42;28.70;;;13.67;;
18532;SDS011;9396;51.510;11.934;2022-12-10T04:22:08;25.60;;;13.80;;
18532;SDS011;9396;51.510;11.934;2022-12-10T04:24:54;25.97;;;13.73;;
18532;SDS011;9396;51.510;11.934;2022-12-10T04:27:38;24.13;;;13.40;;
18532;SDS011;9396;51.510;11.934;2022-12-10T04:30:07;29.77;;;14.50;;
18532;SDS011;9396;51.510;11.934;2022-12-10T04:32:36;28.17;;;15.00;;
18532;SDS011;9396;51.510;11.934;2022-12-10T04:35:03;27.43;;;14.10;;
18532;SDS011;9396;51.510;11.934;2022-12-10T04:37:32;32.07;;;14.43;;
18532;SDS011;9396;51.510;11.934;2022-12-10T04:39:58;33.00;;;16.03;;
18532;SDS011;9396;51.510;11.934;2022-12-10T04:42:25;32.63;;;16.43;;
18532;SDS011;9396;51.510;11.934;2022-12-10T04:44:52;32.67;;;15.60;;
18532;SDS011;9396;51.510;11.934;2022-12-10T04:47:18;30.77;;;15.47;;
18532;SDS011;9396;51.510;11.934;2022-12-10T04:49:45;33.00;;;16.00;;
18532;SDS011;9396;51.510;11.934;2022-12-10T04:52:12;32.27;;;15.93;;
18532;SDS011;9396;51.510;11.934;2022-12-10T04:54:41;35.13;;;16.20;;
18532;SDS011;9396;51.510;11.934;2022-12-10T04:57:08;28.50;;;15.10;;
18532;SDS011;9396;51.510;11.934;2022-12-10T04:59:36;30.90;;;15.33;;
18532;SDS011;9396;51.510;11.934;2022-12-10T05:02:02;29.10;;;15.10;;
18532;SDS011;9396;51.510;11.934;2022-12-10T05:04:29;37.50;;;17.00;;
18532;SDS011;9396;51.510;11.934;2022-12-10T05:06:56;38.33;;;17.50;;
18532;SDS011;9396;51.510;11.934;2022-12-10T05:09:22;38.43;;;16.87;;
18532;SDS011;9396;51.510;11.934;2022-12-10T05:11:50;33.97;;;17.60;;
18532;SDS011;9396;51.510;11.934;2022-12-10T05:14:17;42.17;;;19.33;;
18532;SDS011;9396;51.510;11.934;2022-12-10T05:16:44;36.10;;;16.60;;
18532;SDS011;9396;51.510;11.934;2022-12-10T05:19:10;42.40;;;18.57;;
18532;SDS011;9396;51.510;11.934;2022-12-10T05:21:38;39.13;;;18.20;;
18532;SDS011;9396;51.510;11.934;2022-12-10T05:24:22;43.53;;;19.60;;
18532;SDS011;9396;51.510;11.934;2022-12-10T05:26:51;40.27;;;17.83;;
18532;SDS011;9396;51.510;11.934;2022-12-10T05:29:18;43.17;;;17.90;;
18532;SDS011;9396;51.510;11.934;2022-12-10T05:31:45;43.13;;;18.47;;
18532;SDS011;9396;51.510;11.934;2022-12-10T05:34:12;37.83;;;19.27;;
18532;SDS011;9396;51.510;11.934;2022-12-10T05:36:39;43.50;;;18.10;;
18532;SDS011;9396;51.510;11.934;2022-12-10T05:39:06;38.20;;;17.77;;
18532;SDS011;9396;51.510;11.934;2022-12-10T05:41:34;38.13;;;17.93;;
18532;SDS011;9396;51.510;11.934;2022-12-10T05:44:05;36.60;;;15.90;;
18532;SDS011;9396;51.510;11.934;2022-12-10T05:46:33;36.07;;;16.60;;
18532;SDS011;9396;51.510;11.934;2022-12-10T05:49:01;39.03;;;16.87;;
18532;SDS011;9396;51.510;11.934;2022-12-10T05:51:29;34.00;;;16.13;;
18532;SDS011;9396;51.510;11.934;2022-12-10T05:53:58;34.27;;;16.93;;
18532;SDS011;9396;51.510;11.934;2022-12-10T05:56:26;37.63;;;16.97;;
18532;SDS011;9396;51.510;11.934;2022-12-10T05:58:55;35.77;;;17.43;;
18532;SDS011;9396;51.510;11.934;2022-12-10T06:01:26;37.43;;;17.07;;
18532;SDS011;9396;51.510;11.934;2022-12-10T06:03:54;35.03;;;17.97;;
18532;SDS011;9396;51.510;11.934;2022-12-10T06:06:22;37.83;;;16.63;;
18532;SDS011;9396;51.510;11.934;2022-12-10T06:08:50;38.10;;;17.10;;
18532;SDS011;9396;51.510;11.934;2022-12-10T06:11:17;32.83;;;16.27;;
18532;SDS011;9396;51.510;11.934;2022-12-10T06:13:44;34.20;;;16.27;;
18532;SDS011;9396;51.510;11.934;2022-12-10T06:16:12;35.00;;;17.67;;
18532;SDS011;9396;51.510;11.934;2022-12-10T06:18:41;36.97;;;16.70;;
18532;SDS011;9396;51.510;11.934;2022-12-10T06:21:09;35.30;;;17.40;;
18532;SDS011;9396;51.510;11.934;2022-12-10T06:23:37;38.37;;;17.43;;
18532;SDS011;9396;51.510;11.934;2022-12-10T06:26:04;38.53;;;16.77;;
18532;SDS011;9396;51.510;11.934;2022-12-10T06:28:31;35.10;;;16.00;;
18532;SDS011;9396;51.510;11.934;2022-12-10T06:30:58;34.23;;;16.03;;
18532;SDS011;9396;51.510;11.934;2022-12-10T06:33:25;34.97;;;16.90;;
18532;SDS011;9396;51.510;11.934;2022-12-10T06:35:53;37.83;;;17.30;;
18532;SDS011;9396;51.510;11.934;2022-12-10T06:38:20;35.50;;;17.23;;
18532;SDS011;9396;51.510;11.934;2022-12-10T06:40:46;35.97;;;17.43;;
18532;SDS011;9396;51.510;11.934;2022-12-10T06:43:13;36.67;;;16.93;;
18532;SDS011;9396;51.510;11.934;2022-12-10T06:45:40;34.40;;;15.80;;
18532;SDS011;9396;51.510;11.934;2022-12-10T06:48:07;31.80;;;15.77;;
18532;SDS011;9396;51.510;11.934;2022-12-10T06:50:35;35.43;;;15.90;;
18532;SDS011;9396;51.510;11.934;2022-12-10T06:53:03;34.87;;;16.10;;
18532;SDS011;9396;51.510;11.934;2022-12-10T06:55:30;32.33;;;15.90;;
18532;SDS011;9396;51.510;11.934;2022-12-10T06:57:56;35.57;;;16.60;;
18532;SDS011;9396;51.510;11.934;2022-12-10T07:00:23;31.07;;;16.37;;
18532;SDS011;9396;51.510;11.934;2022-12-10T07:02:50;32.53;;;16.00;;
18532;SDS011;9396;51.510;11.934;2022-12-10T07:05:16;32.43;;;15.73;;
18532;SDS011;9396;51.510;11.934;2022-12-10T07:07:43;29.73;;;14.93;;
18532;SDS011;9396;51.510;11.934;2022-12-10T07:10:11;28.20;;;14.90;;
18532;SDS011;9396;51.510;11.934;2022-12-10T07:12:39;26.70;;;13.50;;
18532;SDS011;9396;51.510;11.934;2022-12-10T07:15:06;26.53;;;14.40;;
18532;SDS011;9396;51.510;11.934;2022-12-10T07:17:33;26.10;;;13.13;;
18532;SDS011;9396;51.510;11.934;2022-12-10T07:20:00;29.47;;;14.40;;
18532;SDS011;9396;51.510;11.934;2022-12-10T07:22:27;28.17;;;13.40;;
18532;SDS011;9396;51.510;11.934;2022-12-10T07:24:54;27.93;;;12.97;;
18532;SDS011;9396;51.510;11.934;2022-12-10T07:27:22;23.20;;;13.73;;
18532;SDS011;9396;51.510;11.934;2022-12-10T07:29:48;24.30;;;12.90;;
18532;SDS011;9396;51.510;11.934;2022-12-10T07:32:15;24.77;;;12.93;;
18532;SDS011;9396;51.510;11.934;2022-12-10T07:34:42;26.10;;;13.57;;
18532;SDS011;9396;51.510;11.934;2022-12-10T07:37:09;23.90;;;12.90;;
18532;SDS011;9396;51.510;11.934;2022-12-10T07:39:35;29.00;;;13.77;;
18532;SDS011;9396;51.510;11.934;2022-12-10T07:42:02;29.97;;;14.87;;
18532;SDS011;9396;51.510;11.934;2022-12-10T07:44:30;28.03;;;13.67;;
18532;SDS011;9396;51.510;11.934;2022-12-10T07:46:57;26.90;;;14.00;;
18532;SDS011;9396;51.510;11.934;2022-12-10T07:49:24;28.13;;;14.63;;
18532;SDS011;9396;51.510;11.934;2022-12-10T07:51:50;28.50;;;14.87;;
18532;SDS011;9396;51.510;11.934;2022-12-10T07:54:17;29.70;;;14.50;;
18532;SDS011;9396;51.510;11.934;2022-12-10T07:56:45;28.87;;;14.53;;
18532;SDS011;9396;51.510;11.934;2022-12-10T07:59:11;25.20;;;13.37;;
18532;SDS011;9396;51.510;11.934;2022-12-10T08:01:39;24.43;;;13.37;;
18532;SDS011;9396;51.510;11.934;2022-12-10T08:04:06;29.37;;;14.40;;
18532;SDS011;9396;51.510;11.934;2022-12-10T08:06:33;26.90;;;13.27;;
18532;SDS011;9396;51.510;11.934;2022-12-10T08:09:00;28.03;;;14.33;;
18532;SDS011;9396;51.510;11.934;2022-12-10T08:11:26;29.23;;;14.87;;
18532;SDS011;9396;51.510;11.934;2022-12-10T08:13:53;27.90;;;14.50;;
18532;SDS011;9396;51.510;11.934;2022-12-10T08:16:21;27.80;;;13.33;;
18532;SDS011;9396;51.510;11.934;2022-12-10T08:18:51;28.40;;;14.27;;
18532;SDS011;9396;51.510;11.934;2022-12-10T08:21:19;28.60;;;14.87;;
18532;SDS011;9396;51.510;11.934;2022-12-10T08:23:47;30.07;;;15.80;;
18532;SDS011;9396;51.510;11.934;2022-12-10T08:26:14;29.40;;;15.07;;
18532;SDS011;9396;51.510;11.934;2022-12-10T08:28:43;31.27;;;15.50;;
18532;SDS011;9396;51.510;11.934;2022-12-10T08:31:10;24.40;;;14.03;;
18532;SDS011;9396;51.510;11.934;2022-12-10T08:33:38;32.53;;;16.23;;
18532;SDS011;9396;51.510;11.934;2022-12-10T08:36:08;26.77;;;14.43;;
18532;SDS011;9396;51.510;11.934;2022-12-10T08:38:36;27.33;;;14.20;;
18532;SDS011;9396;51.510;11.934;2022-12-10T08:41:05;34.90;;;18.17;;
18532;SDS011;9396;51.510;11.934;2022-12-10T08:43:33;28.37;;;15.47;;
18532;SDS011;9396;51.510;11.934;2022-12-10T08:45:59;34.40;;;17.80;;
18532;SDS011;9396;51.510;11.934;2022-12-10T08:48:26;26.47;;;14.60;;
18532;SDS011;9396;51.510;11.934;2022-12-10T08:50:52;25.50;;;14.00;;
18532;SDS011;9396;51.510;11.934;2022-12-10T08:53:20;29.53;;;13.90;;
18532;SDS011;9396;51.510;11.934;2022-12-10T08:55:49;24.43;;;12.37;;
18532;SDS011;9396;51.510;11.934;2022-12-10T08:58:16;21.43;;;12.07;;
18532;SDS011;9396;51.510;11.934;2022-12-10T09:00:43;25.60;;;13.13;;
18532;SDS011;9396;51.510;11.934;2022-12-10T09:03:09;25.17;;;13.53;;
18532;SDS011;9396;51.510;11.934;2022-12-10T09:05:36;22.90;;;13.10;;
18532;SDS011;9396;51.510;11.934;2022-12-10T09:08:03;25.60;;;14.10;;
18532;SDS011;9396;51.510;11.934;2022-12-10T09:10:31;26.27;;;13.67;;
18532;SDS011;9396;51.510;11.934;2022-12-10T09:12:58;24.57;;;12.67;;
18532;SDS011;9396;51.510;11.934;2022-12-10T09:15:24;27.13;;;13.63;;
18532;SDS011;9396;51.510;11.934;2022-12-10T09:17:51;25.33;;;13.70;;
18532;SDS011;9396;51.510;11.934;2022-12-10T09:20:18;27.23;;;14.33;;
18532;SDS011;9396;51.510;11.934;2022-12-10T09:22:44;27.20;;;14.43;;
18532;SDS011;9396;51.510;11.934;2022-12-10T09:25:11;25.57;;;13.60;;
18532;SDS011;9396;51.510;11.934;2022-12-10T09:27:41;25.23;;;13.53;;
18532;SDS011;9396;51.510;11.934;2022-12-10T09:30:09;29.67;;;15.20;;
18532;SDS011;9396;51.510;11.934;2022-12-10T09:32:37;28.03;;;15.70;;
18532;SDS011;9396;51.510;11.934;2022-12-10T09:35:04;28.60;;;15.73;;
18532;SDS011;9396;51.510;11.934;2022-12-10T09:37:32;28.40;;;14.90;;
18532;SDS011;9396;51.510;11.934;2022-12-10T09:39:58;32.87;;;16.17;;
18532;SDS011;9396;51.510;11.934;2022-12-10T09:42:29;26.23;;;14.23;;
18532;SDS011;9396;51.510;11.934;2022-12-10T09:45:05;31.00;;;16.03;;
18532;SDS011;9396;51.510;11.934;2022-12-10T09:47:40;30.83;;;15.57;;
18532;SDS011;9396;51.510;11.934;2022-12-10T09:50:16;30.67;;;14.57;;
18532;SDS011;9396;51.510;11.934;2022-12-10T09:52:47;30.97;;;15.43;;
18532;SDS011;9396;51.510;11.934;2022-12-10T09:55:16;29.13;;;14.57;;
18532;SDS011;9396;51.510;11.934;2022-12-10T09:57:46;33.70;;;16.03;;
18532;SDS011;9396;51.510;11.934;2022-12-10T10:00:18;30.70;;;15.67;;
18532;SDS011;9396;51.510;11.934;2022-12-10T10:02:48;28.57;;;15.47;;
18532;SDS011;9396;51.510;11.934;2022-12-10T10:05:17;25.73;;;14.80;;
18532;SDS011;9396;51.510;11.934;2022-12-10T10:07:48;31.37;;;15.73;;
18532;SDS011;9396;51.510;11.934;2022-12-10T10:10:19;34.83;;;17.63;;
18532;SDS011;9396;51.510;11.934;2022-12-10T10:12:50;35.70;;;16.90;;
18532;SDS011;9396;51.510;11.934;2022-12-10T10:15:22;30.27;;;15.43;;
18532;SDS011;9396;51.510;11.934;2022-12-10T10:17:53;32.83;;;14.57;;
18532;SDS011;9396;51.510;11.934;2022-12-10T10:20:23;33.97;;;16.30;;
18532;SDS011;9396;51.510;11.934;2022-12-10T10:22:50;31.00;;;15.47;;
18532;SDS011;9396;51.510;11.934;2022-12-10T10:25:18;30.73;;;15.70;;
18532;SDS011;9396;51.510;11.934;2022-12-10T10:27:45;31.43;;;16.57;;
18532;SDS011;9396;51.510;11.934;2022-12-10T10:30:14;29.63;;;15.10;;
18532;SDS011;9396;51.510;11.934;2022-12-10T10:32:48;27.60;;;15.83;;
18532;SDS011;9396;51.510;11.934;2022-12-10T10:35:23;30.40;;;15.20;;
18532;SDS011;9396;51.510;11.934;2022-12-10T10:37:52;38.13;;;16.37;;
18532;SDS011;9396;51.510;11.934;2022-12-10T10:40:25;35.13;;;17.63;;
18532;SDS011;9396;51.510;11.934;2022-12-10T10:42:54;32.20;;;16.53;;
18532;SDS011;9396;51.510;11.934;2022-12-10T10:45:33;29.70;;;16.37;;
18532;SDS011;9396;51.510;11.934;2022-12-10T10:48:05;30.50;;;15.67;;
18532;SDS011;9396;51.510;11.934;2022-12-10T10:50:37;27.33;;;14.70;;
18532;SDS011;9396;51.510;11.934;2022-12-10T10:53:24;30.50;;;16.87;;
18532;SDS011;9396;51.510;11.934;2022-12-10T10:55:57;28.63;;;15.83;;
18532;SDS011;9396;51.510;11.934;2022-12-10T10:58:27;28.40;;;16.10;;
18532;SDS011;9396;51.510;11.934;2022-12-10T11:00:55;28.00;;;15.13;;
18532;SDS011;9396;51.510;11.934;2022-12-10T11:03:26;26.77;;;14.83;;
18532;SDS011;9396;51.510;11.934;2022-12-10T11:05:54;31.27;;;16.13;;
18532;SDS011;9396;51.510;11.934;2022-12-10T11:08:24;28.47;;;14.73;;
18532;SDS011;9396;51.510;11.934;2022-12-10T11:10:55;28.10;;;15.57;;
18532;SDS011;9396;51.510;11.934;2022-12-10T11:13:27;27.00;;;15.37;;
18532;SDS011;9396;51.510;11.934;2022-12-10T11:15:56;30.93;;;15.43;;
18532;SDS011;9396;51.510;11.934;2022-12-10T11:18:29;30.13;;;16.43;;
18532;SDS011;9396;51.510;11.934;2022-12-10T11:20:58;26.77;;;14.77;;
18532;SDS011;9396;51.510;11.934;2022-12-10T11:23:28;29.00;;;15.07;;
18532;SDS011;9396;51.510;11.934;2022-12-10T11:25:57;27.97;;;15.63;;
18532;SDS011;9396;51.510;11.934;2022-12-10T11:28:33;28.57;;;14.77;;
18532;SDS011;9396;51.510;11.934;2022-12-10T11:31:13;29.60;;;15.27;;
18532;SDS011;9396;51.510;11.934;2022-12-10T11:34:01;28.23;;;15.50;;
18532;SDS011;9396;51.510;11.934;2022-12-10T11:36:35;30.73;;;15.77;;
18532;SDS011;9396;51.510;11.934;2022-12-10T11:39:10;31.50;;;16.73;;
18532;SDS011;9396;51.510;11.934;2022-12-10T11:41:53;30.57;;;15.43;;
18532;SDS011;9396;51.510;11.934;2022-12-10T11:44:29;30.43;;;15.83;;
18532;SDS011;9396;51.510;11.934;2022-12-10T11:50:00;29.27;;;15.30;;
18532;SDS011;9396;51.510;11.934;2022-12-10T11:52:40;31.80;;;15.23;;
18532;SDS011;9396;51.510;11.934;2022-12-10T11:55:21;30.27;;;16.60;;
18532;SDS011;9396;51.510;11.934;2022-12-10T11:57:58;32.40;;;17.50;;
18532;SDS011;9396;51.510;11.934;2022-12-10T12:00:39;30.57;;;15.97;;
18532;SDS011;9396;51.510;11.934;2022-12-10T12:03:24;32.30;;;15.53;;
18532;SDS011;9396;51.510;11.934;2022-12-10T12:06:06;28.90;;;15.43;;
18532;SDS011;9396;51.510;11.934;2022-12-10T12:08:48;30.83;;;16.23;;
18532;SDS011;9396;51.510;11.934;2022-12-10T12:11:34;30.23;;;15.60;;
18532;SDS011;9396;51.510;11.934;2022-12-10T12:14:16;32.63;;;15.70;;
18532;SDS011;9396;51.510;11.934;2022-12-10T12:16:50;32.20;;;16.80;;
18532;SDS011;9396;51.510;11.934;2022-12-10T12:19:22;29.60;;;15.37;;
18532;SDS011;9396;51.510;11.934;2022-12-10T12:21:56;31.83;;;19.17;;
18532;SDS011;9396;51.510;11.934;2022-12-10T12:24:28;27.80;;;16.37;;
18532;SDS011;9396;51.510;11.934;2022-12-10T12:27:02;28.23;;;15.60;;
18532;SDS011;9396;51.510;11.934;2022-12-10T12:29:39;31.17;;;16.10;;
18532;SDS011;9396;51.510;11.934;2022-12-10T12:32:11;34.30;;;17.13;;
18532;SDS011;9396;51.510;11.934;2022-12-10T12:34:44;28.87;;;16.37;;
18532;SDS011;9396;51.510;11.934;2022-12-10T12:37:17;30.00;;;16.23;;
18532;SDS011;9396;51.510;11.934;2022-12-10T12:39:48;28.80;;;16.60;;
18532;SDS011;9396;51.510;11.934;2022-12-10T12:42:24;32.27;;;16.57;;
18532;SDS011;9396;51.510;11.934;2022-12-10T12:44:57;34.97;;;20.70;;
18532;SDS011;9396;51.510;11.934;2022-12-10T12:47:30;37.83;;;21.57;;
18532;SDS011;9396;51.510;11.934;2022-12-10T12:50:10;28.80;;;16.30;;
18532;SDS011;9396;51.510;11.934;2022-12-10T12:52:48;30.37;;;16.57;;
18532;SDS011;9396;51.510;11.934;2022-12-10T12:55:19;31.20;;;17.53;;
18532;SDS011;9396;51.510;11.934;2022-12-10T12:57:52;33.23;;;17.27;;
18532;SDS011;9396;51.510;11.934;2022-12-10T13:00:26;31.87;;;17.50;;
18532;SDS011;9396;51.510;11.934;2022-12-10T13:03:05;28.87;;;15.73;;
18532;SDS011;9396;51.510;11.934;2022-12-10T13:05:43;32.73;;;17.07;;
18532;SDS011;9396;51.510;11.934;2022-12-10T13:08:29;32.80;;;17.93;;
18532;SDS011;9396;51.510;11.934;2022-12-10T13:10:57;27.67;;;15.60;;
18532;SDS011;9396;51.510;11.934;2022-12-10T13:13:28;30.90;;;17.10;;
18532;SDS011;9396;51.510;11.934;2022-12-10T13:19:07;30.73;;;17.20;;
18532;SDS011;9396;51.510;11.934;2022-12-10T13:21:56;29.57;;;15.77;;
18532;SDS011;9396;51.510;11.934;2022-12-10T13:27:40;35.57;;;17.20;;
18532;SDS011;9396;51.510;11.934;2022-12-10T13:35:51;34.27;;;17.00;;
18532;SDS011;9396;51.510;11.934;2022-12-10T13:38:24;33.00;;;16.93;;
18532;SDS011;9396;51.510;11.934;2022-12-10T13:40:57;33.10;;;17.50;;
18532;SDS011;9396;51.510;11.934;2022-12-10T13:43:55;29.87;;;17.00;;
18532;SDS011;9396;51.510;11.934;2022-12-10T13:46:54;33.00;;;16.87;;
18532;SDS011;9396;51.510;11.934;2022-12-10T13:49:26;26.83;;;15.00;;
18532;SDS011;9396;51.510;11.934;2022-12-10T13:51:58;30.23;;;15.30;;
18532;SDS011;9396;51.510;11.934;2022-12-10T13:54:30;29.73;;;15.87;;
18532;SDS011;9396;51.510;11.934;2022-12-10T13:57:26;32.37;;;15.33;;
18532;SDS011;9396;51.510;11.934;2022-12-10T14:00:08;26.73;;;13.93;;
18532;SDS011;9396;51.510;11.934;2022-12-10T14:02:50;31.37;;;17.40;;
18532;SDS011;9396;51.510;11.934;2022-12-10T14:05:32;33.40;;;19.13;;
18532;SDS011;9396;51.510;11.934;2022-12-10T14:08:09;33.90;;;22.13;;
18532;SDS011;9396;51.510;11.934;2022-12-10T14:10:40;30.47;;;15.80;;
18532;SDS011;9396;51.510;11.934;2022-12-10T14:13:10;33.23;;;16.27;;
18532;SDS011;9396;51.510;11.934;2022-12-10T14:15:51;26.77;;;14.73;;
18532;SDS011;9396;51.510;11.934;2022-12-10T14:18:20;24.03;;;13.57;;
18532;SDS011;9396;51.510;11.934;2022-12-10T14:20:50;32.43;;;16.63;;
18532;SDS011;9396;51.510;11.934;2022-12-10T14:23:20;28.27;;;15.47;;
18532;SDS011;9396;51.510;11.934;2022-12-10T14:26:03;26.33;;;15.73;;
18532;SDS011;9396;51.510;11.934;2022-12-10T14:28:30;32.93;;;18.20;;
18532;SDS011;9396;51.510;11.934;2022-12-10T14:30:59;68.03;;;43.37;;
18532;SDS011;9396;51.510;11.934;2022-12-10T14:33:26;61.00;;;39.43;;
18532;SDS011;9396;51.510;11.934;2022-12-10T14:35:53;48.80;;;33.23;;
18532;SDS011;9396;51.510;11.934;2022-12-10T14:38:21;28.63;;;17.17;;
18532;SDS011;9396;51.510;11.934;2022-12-10T14:40:53;30.93;;;21.67;;
18532;SDS011;9396;51.510;11.934;2022-12-10T14:43:21;31.63;;;20.50;;
18532;SDS011;9396;51.510;11.934;2022-12-10T14:45:51;27.77;;;15.83;;
18532;SDS011;9396;51.510;11.934;2022-12-10T14:48:22;24.60;;;13.93;;
18532;SDS011;9396;51.510;11.934;2022-12-10T14:50:50;29.83;;;16.17;;
18532;SDS011;9396;51.510;11.934;2022-12-10T14:53:18;24.47;;;14.17;;